createdAt,value
2023-03-07T00:01:58.705Z,25.25
2023-03-07T00:07:00.232Z,23.38
2023-03-07T00:12:01.615Z,23.08
2023-03-07T00:17:02.972Z,21.33
2023-03-07T00:22:04.459Z,22.60
2023-03-07T00:27:06.265Z,22.80
2023-03-07T00:32:07.720Z,28.50
2023-03-07T00:37:09.250Z,33.30
2023-03-07T00:42:10.578Z,34.95
2023-03-07T00:47:12.199Z,33.15
2023-03-07T00:52:13.524Z,32.08
2023-03-07T00:57:14.856Z,33.85
2023-03-07T01:02:16.331Z,34.75
2023-03-07T01:07:17.776Z,34.78
2023-03-07T01:12:19.115Z,37.22
2023-03-07T01:17:20.482Z,37.63
2023-03-07T01:22:21.798Z,38.45
2023-03-07T01:27:23.763Z,37.45
2023-03-07T01:32:25.286Z,43.38
2023-03-07T01:37:26.704Z,44.42
2023-03-07T01:42:31.449Z,43.28
2023-03-07T01:47:32.856Z,47.55
2023-03-07T01:52:41.658Z,41.97
2023-03-07T01:57:45.793Z,39.75
2023-03-07T02:02:53.598Z,42.55
2023-03-07T02:12:58.363Z,39.15
2023-03-07T02:17:59.868Z,40.80
2023-03-07T02:23:01.968Z,44.75
2023-03-07T02:28:04.447Z,44.13
2023-03-07T02:33:05.805Z,40.42
2023-03-07T02:38:07.494Z,40.65
2023-03-07T02:43:09.620Z,40.63
2023-03-07T02:48:11.134Z,39.22
2023-03-07T02:53:12.454Z,42.00
2023-03-07T02:58:13.812Z,38.60
2023-03-07T03:03:15.230Z,40.97
2023-03-07T03:08:16.558Z,37.95
2023-03-07T03:13:17.900Z,37.47
2023-03-07T03:18:19.358Z,46.63
2023-03-07T03:23:21.071Z,39.70
2023-03-07T03:28:22.763Z,36.10
2023-03-07T03:33:24.095Z,34.50
2023-03-07T03:38:26.770Z,30.23
2023-03-07T03:43:28.122Z,33.15
2023-03-07T03:48:29.730Z,28.63
2023-03-07T03:53:33.331Z,30.00
2023-03-07T03:58:35.679Z,21.27
2023-03-07T04:03:43.316Z,25.45
2023-03-07T04:08:46.364Z,25.85
2023-03-07T04:13:47.776Z,24.30
2023-03-07T04:18:50.890Z,24.27
2023-03-07T04:23:55.494Z,19.15
2023-03-07T04:28:56.906Z,22.63
2023-03-07T04:33:58.602Z,24.75
2023-03-07T04:38:59.917Z,22.75
2023-03-07T04:44:01.380Z,20.90
2023-03-07T04:49:02.742Z,20.83
2023-03-07T04:54:04.169Z,24.70
2023-03-07T04:59:05.503Z,22.02
2023-03-07T05:04:06.863Z,20.63
2023-03-07T05:09:08.226Z,24.38
2023-03-07T05:14:09.571Z,23.27
2023-03-07T05:19:10.955Z,24.63
2023-03-07T05:24:12.296Z,22.38
2023-03-07T05:29:13.748Z,24.30
2023-03-07T05:34:15.945Z,27.55
2023-03-07T05:39:17.475Z,26.42
2023-03-07T05:44:19.620Z,27.20
2023-03-07T05:49:21.165Z,26.10
2023-03-07T05:54:22.597Z,26.58
2023-03-07T05:59:23.926Z,23.85
2023-03-07T06:04:25.339Z,26.85
2023-03-07T06:09:28.052Z,25.02
2023-03-07T06:14:31.194Z,28.60
2023-03-07T06:19:33.854Z,24.30
2023-03-07T06:24:35.204Z,29.02
2023-03-07T06:29:37.005Z,27.95
2023-03-07T06:34:38.372Z,22.50
2023-03-07T06:39:39.834Z,20.80
2023-03-07T06:44:43.760Z,26.95
2023-03-07T06:49:45.209Z,21.30
2023-03-07T06:54:46.733Z,22.70
2023-03-07T06:59:48.082Z,23.95
2023-03-07T07:04:49.505Z,21.85
2023-03-07T07:09:51.429Z,23.13
2023-03-07T07:14:52.818Z,20.83
2023-03-07T07:19:54.178Z,26.33
2023-03-07T07:24:55.571Z,20.70
2023-03-07T07:29:56.929Z,23.75
2023-03-07T07:34:58.326Z,22.75
2023-03-07T07:39:59.696Z,23.30
2023-03-07T07:45:01.351Z,22.45
2023-03-07T07:50:02.818Z,21.00
2023-03-07T07:55:04.477Z,20.80
2023-03-07T08:00:06.776Z,21.67
2023-03-07T08:05:12.594Z,18.85
2023-03-07T08:10:16.010Z,21.35
2023-03-07T08:15:19.378Z,20.25
2023-03-07T08:20:23.406Z,21.25
2023-03-07T08:25:25.584Z,18.33
2023-03-07T08:30:30.186Z,17.92
2023-03-07T08:35:32.266Z,18.98
2023-03-07T08:40:33.763Z,23.90
2023-03-07T08:45:35.130Z,18.80
2023-03-07T08:50:38.771Z,20.65
2023-03-07T08:55:40.110Z,17.58
2023-03-07T09:00:41.574Z,16.55
2023-03-07T09:05:42.960Z,16.02
2023-03-07T09:10:44.369Z,16.17
2023-03-07T09:15:45.924Z,15.45
2023-03-07T09:20:47.264Z,17.33
2023-03-07T09:25:48.627Z,17.00
2023-03-07T09:30:49.992Z,17.83
2023-03-07T09:35:51.460Z,13.60
2023-03-07T09:40:53.092Z,17.05
2023-03-07T09:46:13.105Z,12.63
2023-03-07T09:51:50.449Z,13.93
2023-03-07T09:56:55.498Z,11.35
2023-03-07T10:02:17.172Z,11.60
2023-03-07T10:07:23.227Z,11.98
2023-03-07T10:12:55.213Z,9.68
2023-03-07T10:18:12.116Z,10.27
2023-03-07T10:23:32.808Z,12.20
2023-03-07T10:28:37.096Z,11.82
2023-03-07T10:33:40.620Z,9.80
2023-03-07T10:39:06.426Z,10.77
2023-03-07T10:44:17.418Z,10.77
2023-03-07T10:49:25.087Z,11.88
2023-03-07T10:54:38.323Z,11.00
2023-03-07T10:59:45.195Z,10.90
2023-03-07T11:04:47.121Z,7.80
2023-03-07T11:09:49.260Z,7.07
2023-03-07T11:14:52.410Z,10.57
2023-03-07T11:19:57.976Z,10.35
2023-03-07T11:25:13.942Z,10.18
2023-03-07T11:30:21.936Z,8.50
2023-03-07T11:35:52.676Z,16.25
2023-03-07T11:41:07.969Z,9.70
2023-03-07T11:46:24.942Z,7.93
2023-03-07T11:51:53.468Z,7.73
2023-03-07T11:57:06.159Z,9.43
2023-03-07T12:02:46.659Z,7.60
2023-03-07T12:08:13.047Z,8.13
2023-03-07T12:13:43.447Z,5.75
2023-03-07T12:18:55.751Z,5.82
2023-03-07T12:24:03.201Z,6.03
2023-03-07T12:29:20.627Z,8.52
2023-03-07T12:34:46.008Z,7.28
2023-03-07T12:40:10.934Z,6.53
2023-03-07T12:45:26.064Z,6.90
2023-03-07T12:50:41.258Z,7.78
2023-03-07T12:55:50.449Z,7.10
2023-03-07T13:00:59.748Z,12.07
2023-03-07T13:06:01.511Z,6.63
2023-03-07T13:11:03.364Z,8.68
2023-03-07T13:16:05.643Z,5.80
2023-03-07T13:21:08.533Z,9.73
2023-03-07T13:26:11.827Z,6.00
2023-03-07T13:31:29.309Z,7.22
2023-03-07T13:36:38.654Z,7.25
2023-03-07T13:41:46.601Z,5.95
2023-03-07T13:46:48.830Z,9.27
2023-03-07T13:52:35.337Z,6.05
2023-03-07T13:57:39.022Z,6.70
2023-03-07T14:02:43.596Z,6.05
2023-03-07T14:07:51.355Z,10.43
2023-03-07T14:13:11.174Z,5.45
2023-03-07T14:18:35.072Z,7.35
2023-03-07T14:24:09.932Z,6.28
2023-03-07T14:29:26.038Z,6.68
2023-03-07T14:34:33.645Z,6.55
2023-03-07T14:45:16.160Z,7.53
2023-03-07T14:50:23.315Z,7.53
2023-03-07T14:55:35.860Z,9.93
2023-03-07T15:00:37.258Z,8.27
2023-03-07T15:05:48.205Z,8.85
2023-03-07T15:10:57.667Z,13.40
2023-03-07T15:16:03.680Z,8.05
2023-03-07T15:21:07.445Z,7.00
2023-03-07T15:26:20.965Z,9.70
2023-03-07T15:31:23.065Z,8.35
2023-03-07T15:36:27.004Z,5.32
2023-03-07T15:41:37.153Z,6.82
2023-03-07T15:46:48.623Z,6.82
2023-03-07T15:51:54.275Z,5.40
2023-03-07T15:56:59.369Z,4.93
2023-03-07T16:02:34.896Z,6.72
2023-03-07T16:07:36.322Z,5.53
2023-03-07T16:12:45.982Z,5.75
2023-03-07T16:17:54.932Z,5.80
2023-03-07T16:22:56.483Z,7.55
2023-03-07T16:27:59.155Z,8.73
2023-03-07T16:33:00.520Z,6.18
2023-03-07T16:38:01.859Z,6.50
2023-03-07T16:43:03.326Z,6.88
2023-03-07T16:48:04.860Z,5.32
2023-03-07T16:53:06.331Z,9.57
2023-03-07T16:58:19.680Z,10.27
2023-03-07T17:03:21.675Z,9.90
2023-03-07T17:08:23.076Z,10.30
2023-03-07T17:13:24.476Z,10.10
2023-03-07T17:18:26.636Z,11.75
2023-03-07T17:23:28.057Z,9.50
2023-03-07T17:28:29.573Z,13.77
2023-03-07T17:33:31.000Z,13.55
2023-03-07T17:38:32.438Z,16.17
2023-03-07T17:43:34.029Z,9.30
2023-03-07T17:48:35.698Z,12.10
2023-03-07T17:53:38.329Z,13.10
2023-03-07T17:58:39.715Z,11.73
2023-03-07T18:03:48.751Z,9.48
2023-03-07T18:08:50.673Z,9.80
2023-03-07T18:13:52.082Z,11.60
2023-03-07T18:18:59.448Z,11.48
2023-03-07T18:24:03.067Z,12.13
2023-03-07T18:29:04.561Z,9.52
2023-03-07T18:34:06.116Z,10.70
2023-03-07T18:39:11.086Z,8.95
2023-03-07T18:44:12.484Z,12.73
2023-03-07T18:49:16.157Z,9.60
2023-03-07T18:54:17.895Z,14.25
2023-03-07T18:59:19.486Z,11.40
2023-03-07T19:04:20.867Z,9.07
2023-03-07T19:09:23.721Z,14.75
2023-03-07T19:14:26.438Z,13.35
2023-03-07T19:19:27.950Z,13.07
2023-03-07T19:24:29.444Z,10.18
2023-03-07T19:29:31.032Z,13.13
2023-03-07T19:34:32.439Z,11.43
2023-03-07T19:39:34.239Z,9.70
2023-03-07T19:44:35.808Z,11.55
2023-03-07T19:49:37.718Z,16.33
2023-03-07T19:54:40.650Z,13.75
2023-03-07T19:59:42.105Z,7.95
2023-03-07T20:04:43.545Z,4.18
2023-03-07T20:09:45.011Z,4.35
2023-03-07T20:14:46.632Z,4.22
2023-03-07T20:19:50.520Z,6.15
2023-03-07T20:24:52.358Z,5.20
2023-03-07T20:29:53.965Z,5.88
2023-03-07T20:34:57.637Z,9.35
2023-03-07T20:40:02.617Z,4.90
2023-03-07T20:45:05.659Z,4.10
2023-03-07T20:50:07.551Z,5.57
2023-03-07T20:55:09.210Z,6.75
2023-03-07T21:00:11.414Z,5.20
2023-03-07T21:05:12.837Z,6.68
2023-03-07T21:10:14.567Z,5.60
2023-03-07T21:15:16.058Z,5.93
2023-03-07T21:20:17.544Z,5.68
2023-03-07T21:25:18.951Z,1.77
2023-03-07T21:30:20.453Z,0.90
2023-03-07T21:35:21.848Z,1.00
2023-03-07T21:40:23.265Z,0.93
2023-03-07T21:45:25.749Z,0.77
2023-03-07T21:50:27.683Z,1.30
2023-03-07T21:55:29.089Z,4.50
2023-03-07T22:00:30.862Z,1.08
2023-03-07T22:05:32.278Z,1.13
2023-03-07T22:10:33.769Z,1.92
2023-03-07T22:15:35.211Z,1.48
2023-03-07T22:20:38.244Z,1.90
2023-03-07T22:25:39.691Z,1.58
2023-03-07T22:30:41.161Z,2.30
2023-03-07T22:35:42.660Z,1.52
2023-03-07T22:40:44.011Z,1.20
2023-03-07T22:45:50.643Z,3.25
2023-03-07T22:50:52.223Z,1.23
2023-03-07T22:55:53.723Z,1.67
2023-03-07T23:00:55.122Z,1.45
2023-03-07T23:05:59.635Z,1.23
2023-03-07T23:11:03.619Z,1.98
2023-03-07T23:16:16.479Z,2.83
2023-03-07T23:21:23.672Z,2.28
2023-03-07T23:26:28.031Z,5.53
2023-03-07T23:31:32.458Z,2.35
2023-03-07T23:36:34.519Z,1.90
2023-03-07T23:41:36.264Z,1.83
2023-03-07T23:46:37.968Z,2.83
2023-03-07T23:51:39.465Z,1.80
2023-03-07T23:56:40.826Z,3.10
